createdAt,value
2023-04-29T00:00:18.722Z,10.43
2023-04-29T00:03:09.513Z,10.42
2023-04-29T00:05:40.689Z,10.43
2023-04-29T00:08:11.884Z,10.42
2023-04-29T00:10:42.542Z,10.41
2023-04-29T00:13:13.716Z,10.40
2023-04-29T00:15:44.834Z,10.37
2023-04-29T00:18:15.487Z,10.34
2023-04-29T00:20:46.142Z,10.34
2023-04-29T00:23:16.843Z,10.33
2023-04-29T00:25:47.490Z,10.33
2023-04-29T00:28:18.256Z,10.35
2023-04-29T00:30:48.867Z,10.36
2023-04-29T00:33:19.557Z,10.36
2023-04-29T00:35:50.218Z,10.35
2023-04-29T00:38:21.291Z,10.35
2023-04-29T00:40:52.413Z,10.36
2023-04-29T00:43:23.088Z,10.37
2023-04-29T00:45:54.411Z,10.36
2023-04-29T00:48:25.026Z,10.35
2023-04-29T00:50:56.758Z,10.35
2023-04-29T00:53:27.475Z,10.36
2023-04-29T00:55:58.448Z,10.34
2023-04-29T00:58:33.527Z,10.34
2023-04-29T01:01:04.883Z,10.33
2023-04-29T01:03:35.811Z,10.30
2023-04-29T01:06:10.412Z,10.27
2023-04-29T01:08:45.688Z,10.25
2023-04-29T01:11:17.964Z,10.24
2023-04-29T01:13:51.532Z,10.23
2023-04-29T01:16:24.626Z,10.20
2023-04-29T01:18:58.970Z,10.20
2023-04-29T01:21:46.462Z,10.20
2023-04-29T01:24:17.207Z,10.18
2023-04-29T01:26:57.240Z,10.15
2023-04-29T01:29:53.067Z,10.13
2023-04-29T01:32:29.275Z,10.12
2023-04-29T01:35:05.085Z,10.07
2023-04-29T01:37:40.135Z,10.03
2023-04-29T01:40:17.172Z,10.02
2023-04-29T01:43:03.547Z,10.02
2023-04-29T01:45:37.958Z,10.02
2023-04-29T01:48:09.331Z,10.00
2023-04-29T01:50:40.349Z,10.00
2023-04-29T01:53:18.732Z,9.96
2023-04-29T01:55:50.142Z,9.93
2023-04-29T01:58:30.776Z,9.91
2023-04-29T02:01:28.178Z,9.89
2023-04-29T02:03:59.013Z,9.89
2023-04-29T02:06:32.194Z,9.90
2023-04-29T02:09:04.600Z,9.90
2023-04-29T02:11:35.772Z,9.89
2023-04-29T02:14:06.684Z,9.86
2023-04-29T02:16:37.576Z,9.85
2023-04-29T02:19:10.064Z,9.85
2023-04-29T02:21:42.375Z,9.85
2023-04-29T02:24:13.038Z,9.85
2023-04-29T02:26:43.699Z,9.84
2023-04-29T02:29:14.292Z,9.82
2023-04-29T02:31:46.701Z,9.81
2023-04-29T02:34:17.351Z,9.81
2023-04-29T02:36:47.906Z,9.79
2023-04-29T02:39:18.707Z,9.79
2023-04-29T02:41:49.433Z,9.79
2023-04-29T02:44:20.030Z,9.80
2023-04-29T02:46:50.674Z,9.80
2023-04-29T02:49:21.527Z,9.81
2023-04-29T02:51:52.169Z,9.81
2023-04-29T02:54:22.838Z,9.77
2023-04-29T02:56:53.431Z,9.77
2023-04-29T02:59:24.025Z,9.76
2023-04-29T03:01:55.308Z,9.75
2023-04-29T03:04:25.981Z,9.73
2023-04-29T03:06:57.591Z,9.69
2023-04-29T03:09:30.883Z,9.69
2023-04-29T03:12:02.979Z,9.69
2023-04-29T03:14:34.168Z,9.70
2023-04-29T03:17:05.450Z,9.71
2023-04-29T03:19:36.352Z,9.69
2023-04-29T03:22:08.383Z,9.69
2023-04-29T03:24:39.811Z,9.68
2023-04-29T03:27:11.297Z,9.68
2023-04-29T03:29:41.961Z,9.69
2023-04-29T03:32:12.657Z,9.70
2023-04-29T03:34:43.368Z,9.70
2023-04-29T03:37:24.738Z,9.70
2023-04-29T03:40:00.479Z,9.69
2023-04-29T03:42:31.307Z,9.69
2023-04-29T03:45:02.085Z,9.70
2023-04-29T03:47:33.705Z,9.70
2023-04-29T03:50:04.602Z,9.67
2023-04-29T03:52:36.492Z,9.65
2023-04-29T03:55:12.775Z,9.65
2023-04-29T03:57:43.861Z,9.65
2023-04-29T04:00:15.520Z,9.66
2023-04-29T04:02:50.448Z,9.70
2023-04-29T04:05:21.561Z,9.72
2023-04-29T04:07:56.618Z,9.73
2023-04-29T04:10:45.558Z,9.72
2023-04-29T04:13:34.785Z,9.72
2023-04-29T04:16:06.293Z,9.73
2023-04-29T04:18:36.922Z,9.74
2023-04-29T04:21:08.354Z,9.76
2023-04-29T04:23:40.670Z,9.76
2023-04-29T04:26:12.031Z,9.79
2023-04-29T04:28:51.411Z,9.79
2023-04-29T04:31:30.002Z,9.80
2023-04-29T04:34:00.970Z,9.84
2023-04-29T04:36:32.772Z,9.87
2023-04-29T04:39:04.520Z,9.91
2023-04-29T04:41:35.783Z,9.94
2023-04-29T04:44:06.656Z,9.95
2023-04-29T04:46:50.643Z,9.95
2023-04-29T04:49:32.223Z,9.95
2023-04-29T04:52:04.170Z,9.98
2023-04-29T04:54:36.322Z,10.01
2023-04-29T04:57:19.785Z,10.05
2023-04-29T04:59:52.613Z,10.09
2023-04-29T05:02:23.599Z,10.12
2023-04-29T05:04:54.821Z,10.19
2023-04-29T05:07:25.883Z,10.27
2023-04-29T05:10:08.755Z,10.35
2023-04-29T05:12:45.167Z,10.43
2023-04-29T05:15:16.942Z,10.53
2023-04-29T05:17:48.124Z,10.62
2023-04-29T05:20:18.824Z,10.68
2023-04-29T05:22:49.547Z,10.76
2023-04-29T05:25:20.465Z,10.85
2023-04-29T05:27:51.586Z,10.91
2023-04-29T05:30:23.157Z,10.98
2023-04-29T05:32:54.052Z,11.02
2023-04-29T05:35:25.531Z,11.03
2023-04-29T05:37:56.079Z,11.05
2023-04-29T05:40:50.790Z,11.04
2023-04-29T05:43:36.963Z,11.03
2023-04-29T05:46:08.184Z,11.05
2023-04-29T05:48:39.036Z,11.10
2023-04-29T05:51:09.819Z,11.13
2023-04-29T05:53:41.157Z,11.16
2023-04-29T05:56:12.025Z,11.19
2023-04-29T05:58:45.006Z,11.21
2023-04-29T06:01:17.449Z,11.18
2023-04-29T06:03:50.031Z,11.17
2023-04-29T06:06:45.869Z,11.19
2023-04-29T06:09:27.448Z,11.22
2023-04-29T06:11:59.961Z,11.22
2023-04-29T06:14:30.564Z,11.24
2023-04-29T06:17:02.326Z,11.23
2023-04-29T06:19:34.143Z,11.21
2023-04-29T06:22:04.778Z,11.23
2023-04-29T06:24:36.222Z,11.25
2023-04-29T06:27:08.111Z,11.32
2023-04-29T06:29:38.920Z,11.38
2023-04-29T06:32:09.786Z,11.43
2023-04-29T06:34:40.877Z,11.47
2023-04-29T06:37:27.787Z,11.53
2023-04-29T06:40:17.347Z,11.58
2023-04-29T06:43:06.287Z,11.65
2023-04-29T06:45:57.058Z,11.74
2023-04-29T06:48:38.788Z,11.83
2023-04-29T06:51:09.476Z,11.86
2023-04-29T06:53:41.637Z,11.91
2023-04-29T06:56:12.751Z,11.97
2023-04-29T06:58:43.827Z,12.07
2023-04-29T07:01:14.493Z,12.18
2023-04-29T07:03:47.250Z,12.37
2023-04-29T07:06:18.146Z,12.49
2023-04-29T07:08:48.934Z,12.54
2023-04-29T07:11:19.581Z,12.57
2023-04-29T07:13:50.271Z,12.64
2023-04-29T07:19:24.210Z,12.77
2023-04-29T07:21:54.811Z,12.76
2023-04-29T07:24:26.664Z,12.79
2023-04-29T07:26:57.415Z,12.81
2023-04-29T07:29:27.922Z,12.80
2023-04-29T07:31:58.429Z,12.82
2023-04-29T07:34:29.011Z,12.82
2023-04-29T07:36:59.600Z,12.80
2023-04-29T07:39:30.784Z,12.79
2023-04-29T07:42:03.225Z,12.81
2023-04-29T07:44:34.889Z,12.80
2023-04-29T07:47:07.117Z,12.76
2023-04-29T07:49:38.531Z,12.77
2023-04-29T07:52:10.169Z,12.81
2023-04-29T07:54:40.725Z,12.93
2023-04-29T07:57:11.703Z,13.09
2023-04-29T07:59:42.618Z,13.19
2023-04-29T08:02:13.982Z,13.24
2023-04-29T08:04:44.890Z,13.29
2023-04-29T08:07:16.712Z,13.34
2023-04-29T08:09:47.264Z,13.39
2023-04-29T08:12:18.099Z,13.44
2023-04-29T08:14:48.629Z,13.52
2023-04-29T08:17:19.079Z,13.62
2023-04-29T08:19:49.744Z,13.72
2023-04-29T08:22:21.378Z,13.78
2023-04-29T08:24:52.462Z,13.84
2023-04-29T08:27:23.256Z,13.87
2023-04-29T08:29:53.806Z,13.87
2023-04-29T08:32:24.424Z,13.90
2023-04-29T08:34:55.258Z,13.90
2023-04-29T08:37:26.136Z,13.90
2023-04-29T08:39:56.649Z,13.90
2023-04-29T08:42:33.580Z,13.89
2023-04-29T08:45:04.889Z,13.86
2023-04-29T08:47:35.581Z,13.85
2023-04-29T08:50:07.152Z,13.83
2023-04-29T08:52:37.681Z,13.81
2023-04-29T08:55:09.546Z,13.81
2023-04-29T08:57:40.744Z,13.83
2023-04-29T09:00:11.960Z,13.87
2023-04-29T09:02:46.307Z,13.90
2023-04-29T09:05:17.279Z,13.92
2023-04-29T09:07:48.122Z,13.93
2023-04-29T09:10:19.504Z,13.96
2023-04-29T09:12:50.043Z,13.99
2023-04-29T09:15:20.605Z,13.99
2023-04-29T09:17:51.077Z,14.02
2023-04-29T09:20:41.405Z,14.04
2023-04-29T09:23:11.972Z,14.07
2023-04-29T09:25:42.582Z,14.12
2023-04-29T09:28:17.756Z,14.13
2023-04-29T09:30:48.488Z,14.14
2023-04-29T09:33:18.989Z,14.15
2023-04-29T09:35:49.486Z,14.16
2023-04-29T09:38:21.105Z,14.20
2023-04-29T09:40:59.612Z,14.25
2023-04-29T09:43:30.854Z,14.29
2023-04-29T09:46:01.494Z,14.35
2023-04-29T09:48:35.604Z,14.42
2023-04-29T09:51:06.350Z,14.46
2023-04-29T09:53:38.340Z,14.49
2023-04-29T09:56:09.454Z,14.55
2023-04-29T09:58:40.554Z,14.63
2023-04-29T10:01:13.561Z,14.73
2023-04-29T10:03:45.161Z,14.77
2023-04-29T10:06:18.190Z,14.79
2023-04-29T10:08:49.396Z,14.82
2023-04-29T10:11:20.132Z,14.90
2023-04-29T10:13:52.916Z,14.93
2023-04-29T10:16:29.485Z,14.98
2023-04-29T10:19:01.462Z,15.06
2023-04-29T10:21:32.511Z,15.15
2023-04-29T10:24:03.548Z,15.27
2023-04-29T10:26:37.258Z,15.38
2023-04-29T10:29:10.412Z,15.47
2023-04-29T10:31:41.319Z,15.51
2023-04-29T10:34:12.995Z,15.51
2023-04-29T10:36:43.728Z,15.50
2023-04-29T10:39:21.220Z,15.49
2023-04-29T10:41:52.294Z,15.48
2023-04-29T10:44:24.189Z,15.47
2023-04-29T10:47:08.254Z,15.46
2023-04-29T10:49:38.848Z,15.45
2023-04-29T10:52:09.408Z,15.45
2023-04-29T10:54:40.796Z,15.46
2023-04-29T10:57:21.564Z,15.44
2023-04-29T10:59:54.937Z,15.45
2023-04-29T11:02:25.540Z,15.47
2023-04-29T11:05:13.136Z,15.50
2023-04-29T11:07:44.527Z,15.51
2023-04-29T11:10:15.644Z,15.52
2023-04-29T11:12:46.262Z,15.55
2023-04-29T11:15:19.177Z,15.59
2023-04-29T11:17:49.754Z,15.65
2023-04-29T11:20:20.216Z,15.75
2023-04-29T11:22:53.444Z,15.97
2023-04-29T11:25:28.546Z,16.24
2023-04-29T11:27:59.792Z,16.46
2023-04-29T11:30:31.518Z,16.69
2023-04-29T11:33:02.300Z,16.89
2023-04-29T11:35:32.945Z,16.99
2023-04-29T11:38:04.218Z,17.01
2023-04-29T11:40:34.941Z,16.98
2023-04-29T11:43:07.309Z,16.93
2023-04-29T11:45:37.934Z,16.87
2023-04-29T11:48:08.593Z,16.81
2023-04-29T11:50:39.150Z,16.74
2023-04-29T11:53:09.732Z,16.67
2023-04-29T11:55:40.857Z,16.65
2023-04-29T11:58:11.444Z,16.63
2023-04-29T12:00:42.127Z,16.65
2023-04-29T12:03:16.749Z,16.64
2023-04-29T12:05:49.525Z,16.61
2023-04-29T12:08:22.297Z,16.58
2023-04-29T12:10:53.615Z,16.54
2023-04-29T12:13:24.987Z,16.52
2023-04-29T12:15:55.902Z,16.53
2023-04-29T12:18:27.840Z,16.51
2023-04-29T12:20:58.579Z,16.49
2023-04-29T12:23:29.864Z,16.46
2023-04-29T12:26:01.031Z,16.45
2023-04-29T12:28:31.875Z,16.45
2023-04-29T12:31:02.946Z,16.44
2023-04-29T12:33:33.513Z,16.42
2023-04-29T12:36:04.216Z,16.42
2023-04-29T12:38:35.072Z,16.43
2023-04-29T12:41:07.891Z,16.43
2023-04-29T12:43:38.579Z,16.43
2023-04-29T12:46:09.732Z,16.43
2023-04-29T12:48:42.002Z,16.45
2023-04-29T12:51:13.293Z,16.47
2023-04-29T12:53:43.857Z,16.49
2023-04-29T12:56:14.483Z,16.51
2023-04-29T12:58:45.081Z,16.52
2023-04-29T13:01:18.436Z,16.55
2023-04-29T13:03:49.894Z,16.56
2023-04-29T13:06:20.559Z,16.57
2023-04-29T13:08:51.622Z,16.57
2023-04-29T13:11:22.171Z,16.57
2023-04-29T13:13:52.815Z,16.56
2023-04-29T13:16:25.276Z,16.54
2023-04-29T13:19:08.586Z,16.54
2023-04-29T13:21:48.609Z,16.53
2023-04-29T13:24:20.403Z,16.53
2023-04-29T13:26:52.778Z,16.58
2023-04-29T13:29:24.170Z,16.63
2023-04-29T13:31:54.795Z,16.64
2023-04-29T13:34:25.325Z,16.65
2023-04-29T13:36:55.846Z,16.65
2023-04-29T13:39:27.053Z,16.65
2023-04-29T13:41:59.299Z,16.68
2023-04-29T13:44:35.999Z,16.72
2023-04-29T13:47:18.111Z,16.73
2023-04-29T13:55:50.026Z,16.73
2023-04-29T14:03:02.205Z,16.65
2023-04-29T14:05:33.482Z,16.64
2023-04-29T14:08:04.351Z,16.61
2023-04-29T14:10:34.704Z,16.61
2023-04-29T14:13:05.469Z,16.60
2023-04-29T14:15:36.086Z,16.58
2023-04-29T14:18:08.526Z,16.56
2023-04-29T14:20:39.413Z,16.55
2023-04-29T14:23:09.944Z,16.54
2023-04-29T14:25:40.483Z,16.54
2023-04-29T14:28:11.529Z,16.52
2023-04-29T14:30:46.233Z,16.55
2023-04-29T14:33:17.483Z,16.56
2023-04-29T14:35:48.005Z,16.54
2023-04-29T14:38:18.972Z,16.53
2023-04-29T14:40:49.533Z,16.50
2023-04-29T14:43:20.177Z,16.46
2023-04-29T14:45:51.301Z,16.43
2023-04-29T14:48:22.084Z,16.39
2023-04-29T14:50:52.645Z,16.36
2023-04-29T14:53:23.281Z,16.33
2023-04-29T14:55:54.021Z,16.30
2023-04-29T14:58:24.548Z,16.26
2023-04-29T15:00:55.151Z,16.22
2023-04-29T15:03:26.006Z,16.20
2023-04-29T15:05:58.155Z,16.21
2023-04-29T15:08:28.716Z,16.20
2023-04-29T15:10:59.349Z,16.21
2023-04-29T15:13:33.130Z,16.21
2023-04-29T15:16:05.286Z,16.16
2023-04-29T15:18:36.644Z,16.12
2023-04-29T15:21:07.805Z,16.08
2023-04-29T15:23:39.485Z,16.04
2023-04-29T15:26:10.632Z,16.02
2023-04-29T15:28:41.144Z,16.00
2023-04-29T15:31:11.961Z,15.99
2023-04-29T15:33:42.793Z,15.99
2023-04-29T15:36:13.424Z,16.00
2023-04-29T15:38:43.951Z,16.01
2023-04-29T15:41:14.542Z,16.01
2023-04-29T15:43:45.109Z,16.01
2023-04-29T15:46:15.796Z,16.01
2023-04-29T15:48:46.869Z,16.01
2023-04-29T15:51:17.457Z,15.98
2023-04-29T15:53:49.120Z,15.97
2023-04-29T15:56:19.605Z,15.95
2023-04-29T15:58:50.260Z,15.94
2023-04-29T16:01:21.371Z,15.92
2023-04-29T16:03:52.028Z,15.91
2023-04-29T16:06:22.919Z,15.89
2023-04-29T16:08:53.508Z,15.88
2023-04-29T16:11:24.036Z,15.87
2023-04-29T16:13:54.782Z,15.84
2023-04-29T16:16:25.758Z,15.82
2023-04-29T16:18:56.280Z,15.81
2023-04-29T16:21:27.742Z,15.79
2023-04-29T16:23:58.282Z,15.77
2023-04-29T16:26:28.987Z,15.75
2023-04-29T16:28:59.930Z,15.71
2023-04-29T16:31:30.603Z,15.68
2023-04-29T16:34:01.307Z,15.65
2023-04-29T16:36:32.759Z,15.63
2023-04-29T16:39:04.689Z,15.60
2023-04-29T16:41:35.410Z,15.57
2023-04-29T16:44:06.123Z,15.55
2023-04-29T16:46:36.854Z,15.52
2023-04-29T16:49:07.640Z,15.49
2023-04-29T16:51:38.266Z,15.46
2023-04-29T16:54:09.248Z,15.43
2023-04-29T16:56:39.792Z,15.40
2023-04-29T16:59:11.354Z,15.37
2023-04-29T17:01:42.177Z,15.36
2023-04-29T17:04:12.918Z,15.33
2023-04-29T17:06:43.737Z,15.31
2023-04-29T17:09:15.843Z,15.29
2023-04-29T17:11:46.319Z,15.27
2023-04-29T17:14:17.475Z,15.25
2023-04-29T17:16:48.071Z,15.22
2023-04-29T17:19:18.635Z,15.21
2023-04-29T17:21:50.571Z,15.19
2023-04-29T17:24:21.052Z,15.17
2023-04-29T17:26:51.629Z,15.16
2023-04-29T17:29:22.233Z,15.14
2023-04-29T17:31:59.803Z,15.13
2023-04-29T17:34:31.274Z,15.11
2023-04-29T17:37:01.879Z,15.09
2023-04-29T17:39:32.384Z,15.07
2023-04-29T17:42:02.961Z,15.05
2023-04-29T17:44:33.495Z,15.03
2023-04-29T17:47:04.126Z,15.00
2023-04-29T17:49:34.811Z,14.97
2023-04-29T17:52:05.615Z,14.95
2023-04-29T17:54:36.155Z,14.92
2023-04-29T17:57:06.871Z,14.90
2023-04-29T17:59:37.426Z,14.87
2023-04-29T18:02:08.078Z,14.85
2023-04-29T18:04:40.662Z,14.83
2023-04-29T18:07:11.490Z,14.82
2023-04-29T18:09:42.100Z,14.80
2023-04-29T18:12:12.700Z,14.78
2023-04-29T18:14:43.226Z,14.76
2023-04-29T18:17:13.654Z,14.75
2023-04-29T18:19:47.152Z,14.73
2023-04-29T18:22:17.839Z,14.71
2023-04-29T18:24:49.445Z,14.69
2023-04-29T18:27:19.957Z,14.67
2023-04-29T18:29:50.805Z,14.66
2023-04-29T18:32:21.404Z,14.64
2023-04-29T18:34:53.040Z,14.63
2023-04-29T18:37:23.631Z,14.61
2023-04-29T18:39:54.391Z,14.59
2023-04-29T18:42:25.463Z,14.57
2023-04-29T18:44:55.966Z,14.56
2023-04-29T18:47:26.510Z,14.53
2023-04-29T18:49:57.308Z,14.51
2023-04-29T18:52:28.085Z,14.50
2023-04-29T18:54:58.654Z,14.47
2023-04-29T18:57:29.241Z,14.46
2023-04-29T18:59:59.850Z,14.45
2023-04-29T19:02:30.737Z,14.43
2023-04-29T19:05:06.014Z,14.41
2023-04-29T19:07:36.676Z,14.40
2023-04-29T19:10:07.972Z,14.38
2023-04-29T19:12:38.741Z,14.36
2023-04-29T19:15:11.812Z,14.35
2023-04-29T19:17:42.270Z,14.33
2023-04-29T19:20:14.832Z,14.31
2023-04-29T19:22:45.427Z,14.30
2023-04-29T19:25:16.069Z,14.29
2023-04-29T19:27:48.955Z,14.28
2023-04-29T19:30:19.841Z,14.28
2023-04-29T19:32:50.862Z,14.27
2023-04-29T19:35:21.459Z,14.27
2023-04-29T19:37:54.808Z,14.25
2023-04-29T19:40:25.503Z,14.23
2023-04-29T19:42:56.302Z,14.22
2023-04-29T19:45:27.512Z,14.21
2023-04-29T19:48:02.061Z,14.20
2023-04-29T19:50:33.091Z,14.18
2023-04-29T19:53:03.826Z,14.17
2023-04-29T19:55:34.772Z,14.16
2023-04-29T19:58:05.384Z,14.15
2023-04-29T20:00:36.458Z,14.13
2023-04-29T20:03:07.341Z,14.12
2023-04-29T20:05:38.077Z,14.10
2023-04-29T20:08:08.871Z,14.09
2023-04-29T20:10:39.497Z,14.08
2023-04-29T20:13:10.121Z,14.06
2023-04-29T20:15:40.705Z,14.06
2023-04-29T20:18:11.450Z,14.04
2023-04-29T20:20:42.103Z,14.02
2023-04-29T20:23:13.155Z,14.01
2023-04-29T20:25:43.705Z,14.00
2023-04-29T20:28:14.345Z,13.98
2023-04-29T20:30:45.234Z,13.97
2023-04-29T20:33:16.175Z,13.95
2023-04-29T20:35:46.837Z,13.94
2023-04-29T20:38:17.490Z,13.92
2023-04-29T20:40:47.985Z,13.91
2023-04-29T20:43:18.544Z,13.89
2023-04-29T20:45:49.162Z,13.87
2023-04-29T20:48:20.076Z,13.85
2023-04-29T20:50:50.888Z,13.83
2023-04-29T20:53:22.120Z,13.82
2023-04-29T20:55:52.875Z,13.78
2023-04-29T20:58:23.482Z,13.73
2023-04-29T21:00:54.142Z,13.70
2023-04-29T21:03:26.126Z,13.68
2023-04-29T21:05:57.303Z,13.64
2023-04-29T21:08:27.943Z,13.61
2023-04-29T21:10:58.781Z,13.56
2023-04-29T21:13:29.456Z,13.51
2023-04-29T21:16:00.217Z,13.47
2023-04-29T21:18:30.807Z,13.43
2023-04-29T21:21:01.510Z,13.41
2023-04-29T21:23:32.246Z,13.40
2023-04-29T21:26:02.757Z,13.39
2023-04-29T21:28:33.419Z,13.36
2023-04-29T21:31:04.159Z,13.34
2023-04-29T21:33:34.747Z,13.32
2023-04-29T21:36:06.014Z,13.30
2023-04-29T21:38:36.529Z,13.27
2023-04-29T21:41:10.042Z,13.26
2023-04-29T21:43:40.756Z,13.23
2023-04-29T21:46:11.321Z,13.21
2023-04-29T21:48:41.917Z,13.18
2023-04-29T21:51:12.419Z,13.17
2023-04-29T21:53:42.995Z,13.15
2023-04-29T21:56:13.472Z,13.15
2023-04-29T21:58:44.000Z,13.14
2023-04-29T22:01:27.608Z,13.12
2023-04-29T22:03:58.687Z,13.09
2023-04-29T22:06:29.428Z,13.07
2023-04-29T22:09:00.019Z,13.03
2023-04-29T22:11:30.751Z,13.01
2023-04-29T22:14:01.327Z,13.01
2023-04-29T22:16:31.904Z,13.01
2023-04-29T22:19:02.576Z,13.00
2023-04-29T22:21:33.675Z,12.98
2023-04-29T22:24:04.448Z,12.98
2023-04-29T22:26:34.983Z,12.97
2023-04-29T22:29:05.674Z,12.95
2023-04-29T22:31:36.353Z,12.93
2023-04-29T22:34:07.083Z,12.91
2023-04-29T22:36:39.860Z,12.89
2023-04-29T22:39:10.880Z,12.88
2023-04-29T22:41:41.413Z,12.85
2023-04-29T22:44:11.985Z,12.82
2023-04-29T22:46:42.503Z,12.81
2023-04-29T22:49:13.620Z,12.80
2023-04-29T22:51:44.109Z,12.78
2023-04-29T22:54:14.829Z,12.76
2023-04-29T22:56:45.498Z,12.74
2023-04-29T22:59:16.123Z,12.73
2023-04-29T23:01:46.711Z,12.71
2023-04-29T23:04:17.427Z,12.69
2023-04-29T23:06:48.116Z,12.66
2023-04-29T23:09:19.149Z,12.61
2023-04-29T23:11:49.678Z,12.58
2023-04-29T23:14:21.658Z,12.56
2023-04-29T23:16:52.173Z,12.54
2023-04-29T23:19:23.080Z,12.52
2023-04-29T23:21:53.684Z,12.50
2023-04-29T23:24:24.299Z,12.47
2023-04-29T23:26:54.824Z,12.43
2023-04-29T23:29:25.391Z,12.38
2023-04-29T23:31:55.923Z,12.32
2023-04-29T23:34:26.475Z,12.26
2023-04-29T23:36:57.445Z,12.22
2023-04-29T23:39:28.180Z,12.20
2023-04-29T23:41:58.717Z,12.18
2023-04-29T23:44:29.275Z,12.18
2023-04-29T23:46:59.784Z,12.17
2023-04-29T23:49:30.323Z,12.16
2023-04-29T23:52:01.470Z,12.13
2023-04-29T23:54:32.030Z,12.13
2023-04-29T23:57:02.731Z,12.13
2023-04-29T23:59:33.313Z,12.14
